首页
METAR-TAF:

METAR-TAF

机场 :

Lakenheath, 英格兰

纬度: 52-25N, 经度: 000-34E, 海拔: 10米

当前天气观测

该预报发布于56分钟前的00:56 UTC
静风
温度 4°C
湿度 81%
气压 1027 hPa
能见度10公里或以上
天空无云

METAR: EGUL 070056Z AUTO 00000KT 9999 CLR 04/01 A3034 RMK AO2 SLP278 T00350012 $

时间: 02:52 (01:52 UTC)

预报

该预报发布于11小时和52分钟前的14:00 UTC
预报有效从06日的 14点(UTC)到 07日的 20点(UTC)
风速9节,风向西
能见度10公里或以上
散云层高于5000英尺
成为
从 06日的 22点(UTC)到 06日的 23点(UTC)
风速6节,风向多变
能見度: 8000
少量云层高于3000英尺
轻雾
成为
从 07日的 04点(UTC)到 07日的 05点(UTC)
风速10节,风向东南
能见度10公里或以上
散云层高于4500英尺
成为
从 07日的 16点(UTC)到 07日的 17点(UTC)
风速6节,风向东南
能見度: 0706
天空无云

TAF: EGUL 061400Z 0614/0720 26009KT 9999 SCT050 QNH3007INS BECMG 0622/0623 VRB06KT 8000 BR FEW030 QNH3031INS BECMG 0704/0705 09009KT 9999 NSW SKC QNH3038INS BECMH 0711/0712 14010KT 9999 SCT045 QNH3041INS BECMG 0716/0717 13006KT 9999 SKC QNH3036INS TX18/0614Z TN05/0702Z LAST NO AMD AFT 0616 NEXT 0706

超过4000个机场的气象观测和天气预报(METAR&TAF报告)。

可查询的气象台以黄色和红色小点在地图上表示。

将鼠标移到小点上方,可查看气象台名称。

然后点击查看天气观测和预报。

如需切换地图:点击带黑十字的绿色按钮放大地图;点击带横线的绿色按钮缩小地图;或者点击绿色箭头查看邻近地区的地图。


METAR-TAF: